sensor_id;sensor_type;location;lat;lon;timestamp;P1;durP1;ratioP1;P2;durP2;ratioP2
75169;SDS011;63749;49.186;9.222;2023-12-28T00:02:11;34.07;;;17.63;;
75169;SDS011;63749;49.186;9.222;2023-12-28T00:04:38;34.90;;;17.52;;
75169;SDS011;63749;49.186;9.222;2023-12-28T00:07:04;36.37;;;17.00;;
75169;SDS011;63749;49.186;9.222;2023-12-28T00:09:29;37.50;;;16.50;;
75169;SDS011;63749;49.186;9.222;2023-12-28T00:12:07;36.47;;;17.50;;
75169;SDS011;63749;49.186;9.222;2023-12-28T00:14:34;34.60;;;17.80;;
75169;SDS011;63749;49.186;9.222;2023-12-28T00:17:00;34.88;;;17.60;;
75169;SDS011;63749;49.186;9.222;2023-12-28T00:19:25;36.97;;;17.03;;
75169;SDS011;63749;49.186;9.222;2023-12-28T00:21:55;42.22;;;19.73;;
75169;SDS011;63749;49.186;9.222;2023-12-28T00:24:20;37.97;;;17.30;;
75169;SDS011;63749;49.186;9.222;2023-12-28T00:26:46;37.80;;;17.13;;
75169;SDS011;63749;49.186;9.222;2023-12-28T00:29:11;39.70;;;17.50;;
75169;SDS011;63749;49.186;9.222;2023-12-28T00:31:38;36.30;;;17.83;;
75169;SDS011;63749;49.186;9.222;2023-12-28T00:34:05;37.42;;;18.60;;
75169;SDS011;63749;49.186;9.222;2023-12-28T00:36:30;39.73;;;17.97;;
75169;SDS011;63749;49.186;9.222;2023-12-28T00:38:56;34.70;;;17.57;;
75169;SDS011;63749;49.186;9.222;2023-12-28T00:41:25;37.43;;;18.10;;
75169;SDS011;63749;49.186;9.222;2023-12-28T00:43:53;42.70;;;18.42;;
75169;SDS011;63749;49.186;9.222;2023-12-28T00:46:20;38.20;;;18.65;;
75169;SDS011;63749;49.186;9.222;2023-12-28T00:48:48;36.40;;;17.93;;
75169;SDS011;63749;49.186;9.222;2023-12-28T00:51:17;37.88;;;18.63;;
75169;SDS011;63749;49.186;9.222;2023-12-28T00:53:43;38.67;;;17.92;;
75169;SDS011;63749;49.186;9.222;2023-12-28T00:56:09;36.72;;;18.30;;
75169;SDS011;63749;49.186;9.222;2023-12-28T00:58:38;35.67;;;18.27;;
75169;SDS011;63749;49.186;9.222;2023-12-28T01:01:13;35.67;;;17.65;;
75169;SDS011;63749;49.186;9.222;2023-12-28T01:03:43;40.70;;;17.73;;
75169;SDS011;63749;49.186;9.222;2023-12-28T01:06:09;37.77;;;17.57;;
75169;SDS011;63749;49.186;9.222;2023-12-28T01:08:35;39.03;;;17.52;;
75169;SDS011;63749;49.186;9.222;2023-12-28T01:11:03;35.50;;;17.67;;
75169;SDS011;63749;49.186;9.222;2023-12-28T01:13:29;40.40;;;17.95;;
75169;SDS011;63749;49.186;9.222;2023-12-28T01:15:55;35.25;;;17.75;;
75169;SDS011;63749;49.186;9.222;2023-12-28T01:18:23;40.73;;;17.83;;
75169;SDS011;63749;49.186;9.222;2023-12-28T01:20:49;36.22;;;17.90;;
75169;SDS011;63749;49.186;9.222;2023-12-28T01:23:16;35.47;;;18.80;;
75169;SDS011;63749;49.186;9.222;2023-12-28T01:25:43;36.53;;;16.87;;
75169;SDS011;63749;49.186;9.222;2023-12-28T01:28:10;35.50;;;17.58;;
75169;SDS011;63749;49.186;9.222;2023-12-28T01:30:40;35.78;;;17.17;;
75169;SDS011;63749;49.186;9.222;2023-12-28T01:33:09;39.95;;;18.73;;
75169;SDS011;63749;49.186;9.222;2023-12-28T01:35:40;36.80;;;17.90;;
75169;SDS011;63749;49.186;9.222;2023-12-28T01:38:14;37.57;;;18.27;;
75169;SDS011;63749;49.186;9.222;2023-12-28T01:40:44;37.35;;;18.63;;
75169;SDS011;63749;49.186;9.222;2023-12-28T01:43:11;39.83;;;18.10;;
75169;SDS011;63749;49.186;9.222;2023-12-28T01:45:51;36.58;;;18.77;;
75169;SDS011;63749;49.186;9.222;2023-12-28T01:48:18;39.28;;;18.65;;
75169;SDS011;63749;49.186;9.222;2023-12-28T01:50:43;41.00;;;19.20;;
75169;SDS011;63749;49.186;9.222;2023-12-28T01:53:12;42.78;;;19.00;;
75169;SDS011;63749;49.186;9.222;2023-12-28T01:55:39;36.92;;;18.00;;
75169;SDS011;63749;49.186;9.222;2023-12-28T01:58:06;37.30;;;18.77;;
75169;SDS011;63749;49.186;9.222;2023-12-28T02:00:31;41.15;;;19.33;;
75169;SDS011;63749;49.186;9.222;2023-12-28T02:02:57;40.30;;;18.50;;
75169;SDS011;63749;49.186;9.222;2023-12-28T02:05:24;35.45;;;18.40;;
75169;SDS011;63749;49.186;9.222;2023-12-28T02:07:51;36.20;;;17.47;;
75169;SDS011;63749;49.186;9.222;2023-12-28T02:10:18;39.13;;;18.13;;
75169;SDS011;63749;49.186;9.222;2023-12-28T02:12:45;36.45;;;18.48;;
75169;SDS011;63749;49.186;9.222;2023-12-28T02:15:12;38.08;;;18.15;;
75169;SDS011;63749;49.186;9.222;2023-12-28T02:17:43;37.07;;;18.40;;
75169;SDS011;63749;49.186;9.222;2023-12-28T02:20:13;37.17;;;17.95;;
75169;SDS011;63749;49.186;9.222;2023-12-28T02:22:40;36.20;;;17.85;;
75169;SDS011;63749;49.186;9.222;2023-12-28T02:25:12;37.67;;;17.07;;
75169;SDS011;63749;49.186;9.222;2023-12-28T02:27:39;37.22;;;18.17;;
75169;SDS011;63749;49.186;9.222;2023-12-28T02:30:07;39.28;;;17.88;;
75169;SDS011;63749;49.186;9.222;2023-12-28T02:32:39;35.42;;;17.02;;
75169;SDS011;63749;49.186;9.222;2023-12-28T02:35:34;36.20;;;17.40;;
75169;SDS011;63749;49.186;9.222;2023-12-28T02:38:14;37.20;;;17.60;;
75169;SDS011;63749;49.186;9.222;2023-12-28T02:40:52;34.67;;;17.23;;
75169;SDS011;63749;49.186;9.222;2023-12-28T02:43:19;38.00;;;17.25;;
75169;SDS011;63749;49.186;9.222;2023-12-28T02:45:44;37.50;;;17.40;;
75169;SDS011;63749;49.186;9.222;2023-12-28T02:48:12;37.75;;;17.15;;
75169;SDS011;63749;49.186;9.222;2023-12-28T02:50:40;35.75;;;17.80;;
75169;SDS011;63749;49.186;9.222;2023-12-28T02:53:14;37.22;;;17.92;;
75169;SDS011;63749;49.186;9.222;2023-12-28T02:55:41;38.50;;;17.27;;
75169;SDS011;63749;49.186;9.222;2023-12-28T02:58:07;35.08;;;16.67;;
75169;SDS011;63749;49.186;9.222;2023-12-28T03:00:34;35.67;;;16.77;;
75169;SDS011;63749;49.186;9.222;2023-12-28T03:03:02;36.10;;;16.15;;
75169;SDS011;63749;49.186;9.222;2023-12-28T03:05:32;34.03;;;17.90;;
75169;SDS011;63749;49.186;9.222;2023-12-28T03:07:57;32.77;;;16.33;;
75169;SDS011;63749;49.186;9.222;2023-12-28T03:10:23;32.40;;;16.43;;
75169;SDS011;63749;49.186;9.222;2023-12-28T03:12:51;37.10;;;15.98;;
75169;SDS011;63749;49.186;9.222;2023-12-28T03:15:17;32.58;;;16.38;;
75169;SDS011;63749;49.186;9.222;2023-12-28T03:17:44;36.13;;;16.10;;
75169;SDS011;63749;49.186;9.222;2023-12-28T03:20:09;32.40;;;16.35;;
75169;SDS011;63749;49.186;9.222;2023-12-28T03:22:35;29.97;;;15.90;;
75169;SDS011;63749;49.186;9.222;2023-12-28T03:25:01;29.30;;;16.02;;
75169;SDS011;63749;49.186;9.222;2023-12-28T03:27:28;29.57;;;14.87;;
75169;SDS011;63749;49.186;9.222;2023-12-28T03:29:53;30.10;;;15.30;;
75169;SDS011;63749;49.186;9.222;2023-12-28T03:32:18;27.38;;;14.07;;
75169;SDS011;63749;49.186;9.222;2023-12-28T03:34:44;28.53;;;14.43;;
75169;SDS011;63749;49.186;9.222;2023-12-28T03:37:09;29.67;;;15.63;;
75169;SDS011;63749;49.186;9.222;2023-12-28T03:39:36;28.05;;;14.07;;
75169;SDS011;63749;49.186;9.222;2023-12-28T03:42:06;25.23;;;14.00;;
75169;SDS011;63749;49.186;9.222;2023-12-28T03:44:32;26.30;;;13.83;;
75169;SDS011;63749;49.186;9.222;2023-12-28T03:46:58;26.17;;;13.43;;
75169;SDS011;63749;49.186;9.222;2023-12-28T03:49:23;23.00;;;13.53;;
75169;SDS011;63749;49.186;9.222;2023-12-28T03:51:49;25.63;;;12.87;;
75169;SDS011;63749;49.186;9.222;2023-12-28T03:54:15;26.48;;;13.15;;
75169;SDS011;63749;49.186;9.222;2023-12-28T03:56:42;24.45;;;13.13;;
75169;SDS011;63749;49.186;9.222;2023-12-28T03:59:09;24.83;;;13.27;;
75169;SDS011;63749;49.186;9.222;2023-12-28T04:01:35;22.53;;;12.67;;
75169;SDS011;63749;49.186;9.222;2023-12-28T04:04:00;26.05;;;13.20;;
75169;SDS011;63749;49.186;9.222;2023-12-28T04:06:26;22.70;;;12.43;;
75169;SDS011;63749;49.186;9.222;2023-12-28T04:08:51;22.10;;;12.40;;
75169;SDS011;63749;49.186;9.222;2023-12-28T04:11:17;24.92;;;12.70;;
75169;SDS011;63749;49.186;9.222;2023-12-28T04:13:45;24.17;;;12.57;;
75169;SDS011;63749;49.186;9.222;2023-12-28T04:16:14;22.80;;;12.32;;
75169;SDS011;63749;49.186;9.222;2023-12-28T04:18:45;25.73;;;12.97;;
75169;SDS011;63749;49.186;9.222;2023-12-28T04:21:11;22.83;;;12.73;;
75169;SDS011;63749;49.186;9.222;2023-12-28T04:23:37;21.65;;;12.50;;
75169;SDS011;63749;49.186;9.222;2023-12-28T04:26:05;24.27;;;13.27;;
75169;SDS011;63749;49.186;9.222;2023-12-28T04:28:31;25.30;;;12.73;;
75169;SDS011;63749;49.186;9.222;2023-12-28T04:30:56;24.65;;;12.80;;
75169;SDS011;63749;49.186;9.222;2023-12-28T04:33:22;23.60;;;13.20;;
75169;SDS011;63749;49.186;9.222;2023-12-28T04:35:47;26.43;;;13.93;;
75169;SDS011;63749;49.186;9.222;2023-12-28T04:38:13;25.23;;;13.83;;
75169;SDS011;63749;49.186;9.222;2023-12-28T04:40:38;25.67;;;13.50;;
75169;SDS011;63749;49.186;9.222;2023-12-28T04:43:06;27.50;;;14.30;;
75169;SDS011;63749;49.186;9.222;2023-12-28T04:45:31;22.80;;;12.82;;
75169;SDS011;63749;49.186;9.222;2023-12-28T04:47:57;25.77;;;13.30;;
75169;SDS011;63749;49.186;9.222;2023-12-28T04:50:22;24.90;;;13.40;;
75169;SDS011;63749;49.186;9.222;2023-12-28T04:52:48;24.70;;;13.00;;
75169;SDS011;63749;49.186;9.222;2023-12-28T04:55:14;23.73;;;12.32;;
75169;SDS011;63749;49.186;9.222;2023-12-28T04:57:41;23.15;;;12.35;;
75169;SDS011;63749;49.186;9.222;2023-12-28T05:00:07;25.63;;;12.37;;
75169;SDS011;63749;49.186;9.222;2023-12-28T05:02:34;24.15;;;12.25;;
75169;SDS011;63749;49.186;9.222;2023-12-28T05:05:00;21.03;;;12.07;;
75169;SDS011;63749;49.186;9.222;2023-12-28T05:07:26;22.53;;;11.60;;
75169;SDS011;63749;49.186;9.222;2023-12-28T05:09:51;21.48;;;11.95;;
75169;SDS011;63749;49.186;9.222;2023-12-28T05:12:16;22.30;;;11.50;;
75169;SDS011;63749;49.186;9.222;2023-12-28T05:14:42;21.07;;;11.93;;
75169;SDS011;63749;49.186;9.222;2023-12-28T05:17:07;21.00;;;12.13;;
75169;SDS011;63749;49.186;9.222;2023-12-28T05:19:33;22.27;;;11.70;;
75169;SDS011;63749;49.186;9.222;2023-12-28T05:21:58;18.47;;;10.60;;
75169;SDS011;63749;49.186;9.222;2023-12-28T05:24:29;19.60;;;10.65;;
75169;SDS011;63749;49.186;9.222;2023-12-28T05:26:54;21.83;;;10.87;;
75169;SDS011;63749;49.186;9.222;2023-12-28T05:29:20;22.35;;;10.57;;
75169;SDS011;63749;49.186;9.222;2023-12-28T05:31:45;22.40;;;10.90;;
75169;SDS011;63749;49.186;9.222;2023-12-28T05:34:10;18.47;;;10.40;;
75169;SDS011;63749;49.186;9.222;2023-12-28T05:36:36;20.10;;;11.03;;
75169;SDS011;63749;49.186;9.222;2023-12-28T05:39:03;20.80;;;10.93;;
75169;SDS011;63749;49.186;9.222;2023-12-28T05:41:35;17.48;;;9.75;;
75169;SDS011;63749;49.186;9.222;2023-12-28T05:44:01;20.38;;;10.50;;
75169;SDS011;63749;49.186;9.222;2023-12-28T05:46:26;20.37;;;9.57;;
75169;SDS011;63749;49.186;9.222;2023-12-28T05:48:53;17.30;;;9.95;;
75169;SDS011;63749;49.186;9.222;2023-12-28T05:51:18;16.60;;;9.57;;
75169;SDS011;63749;49.186;9.222;2023-12-28T05:53:44;16.87;;;8.83;;
75169;SDS011;63749;49.186;9.222;2023-12-28T05:56:12;15.93;;;8.50;;
75169;SDS011;63749;49.186;9.222;2023-12-28T05:58:38;16.00;;;8.40;;
75169;SDS011;63749;49.186;9.222;2023-12-28T06:01:04;13.75;;;7.45;;
75169;SDS011;63749;49.186;9.222;2023-12-28T06:03:32;14.82;;;8.18;;
75169;SDS011;63749;49.186;9.222;2023-12-28T06:05:59;15.63;;;8.00;;
75169;SDS011;63749;49.186;9.222;2023-12-28T06:08:25;13.52;;;7.60;;
75169;SDS011;63749;49.186;9.222;2023-12-28T06:10:50;13.47;;;7.50;;
75169;SDS011;63749;49.186;9.222;2023-12-28T06:13:15;15.47;;;7.87;;
75169;SDS011;63749;49.186;9.222;2023-12-28T06:15:41;13.47;;;7.63;;
75169;SDS011;63749;49.186;9.222;2023-12-28T06:18:06;15.30;;;8.23;;
75169;SDS011;63749;49.186;9.222;2023-12-28T06:20:32;16.97;;;8.63;;
75169;SDS011;63749;49.186;9.222;2023-12-28T06:22:59;18.77;;;8.63;;
75169;SDS011;63749;49.186;9.222;2023-12-28T06:25:25;17.70;;;8.07;;
75169;SDS011;63749;49.186;9.222;2023-12-28T06:27:51;14.20;;;6.40;;
75169;SDS011;63749;49.186;9.222;2023-12-28T06:30:16;12.43;;;6.00;;
75169;SDS011;63749;49.186;9.222;2023-12-28T06:32:42;10.93;;;5.68;;
75169;SDS011;63749;49.186;9.222;2023-12-28T06:35:07;10.33;;;5.43;;
75169;SDS011;63749;49.186;9.222;2023-12-28T06:37:33;10.23;;;5.43;;
75169;SDS011;63749;49.186;9.222;2023-12-28T06:39:59;7.80;;;4.30;;
75169;SDS011;63749;49.186;9.222;2023-12-28T06:42:24;8.77;;;4.90;;
75169;SDS011;63749;49.186;9.222;2023-12-28T06:44:49;9.33;;;4.40;;
75169;SDS011;63749;49.186;9.222;2023-12-28T06:47:15;7.37;;;4.10;;
75169;SDS011;63749;49.186;9.222;2023-12-28T06:49:40;7.83;;;3.97;;
75169;SDS011;63749;49.186;9.222;2023-12-28T06:52:05;7.40;;;4.33;;
75169;SDS011;63749;49.186;9.222;2023-12-28T06:54:31;5.63;;;3.33;;
75169;SDS011;63749;49.186;9.222;2023-12-28T06:56:56;7.28;;;3.35;;
75169;SDS011;63749;49.186;9.222;2023-12-28T06:59:21;7.17;;;3.30;;
75169;SDS011;63749;49.186;9.222;2023-12-28T07:01:46;6.13;;;2.40;;
75169;SDS011;63749;49.186;9.222;2023-12-28T07:04:14;5.00;;;2.80;;
75169;SDS011;63749;49.186;9.222;2023-12-28T07:06:40;4.87;;;2.27;;
75169;SDS011;63749;49.186;9.222;2023-12-28T07:09:05;5.80;;;2.60;;
75169;SDS011;63749;49.186;9.222;2023-12-28T07:11:30;5.37;;;2.30;;
75169;SDS011;63749;49.186;9.222;2023-12-28T07:13:56;8.13;;;2.23;;
75169;SDS011;63749;49.186;9.222;2023-12-28T07:16:21;6.45;;;2.20;;
75169;SDS011;63749;49.186;9.222;2023-12-28T07:18:46;4.07;;;2.20;;
75169;SDS011;63749;49.186;9.222;2023-12-28T07:21:12;5.23;;;2.27;;
75169;SDS011;63749;49.186;9.222;2023-12-28T07:23:37;5.00;;;2.40;;
75169;SDS011;63749;49.186;9.222;2023-12-28T07:26:03;4.03;;;2.20;;
75169;SDS011;63749;49.186;9.222;2023-12-28T07:28:29;4.22;;;2.30;;
75169;SDS011;63749;49.186;9.222;2023-12-28T07:30:55;4.40;;;2.30;;
75169;SDS011;63749;49.186;9.222;2023-12-28T07:33:20;4.00;;;2.13;;
75169;SDS011;63749;49.186;9.222;2023-12-28T07:35:46;5.53;;;2.03;;
75169;SDS011;63749;49.186;9.222;2023-12-28T07:38:11;6.70;;;2.40;;
75169;SDS011;63749;49.186;9.222;2023-12-28T07:40:37;3.93;;;2.10;;
75169;SDS011;63749;49.186;9.222;2023-12-28T07:43:02;5.22;;;2.60;;
75169;SDS011;63749;49.186;9.222;2023-12-28T07:45:28;3.45;;;2.10;;
75169;SDS011;63749;49.186;9.222;2023-12-28T07:47:53;3.73;;;2.33;;
75169;SDS011;63749;49.186;9.222;2023-12-28T07:50:19;4.40;;;2.37;;
75169;SDS011;63749;49.186;9.222;2023-12-28T07:52:45;4.50;;;2.28;;
75169;SDS011;63749;49.186;9.222;2023-12-28T07:55:12;5.60;;;2.45;;
75169;SDS011;63749;49.186;9.222;2023-12-28T07:57:37;6.53;;;2.20;;
75169;SDS011;63749;49.186;9.222;2023-12-28T08:00:03;4.50;;;2.40;;
75169;SDS011;63749;49.186;9.222;2023-12-28T08:02:29;4.40;;;2.40;;
75169;SDS011;63749;49.186;9.222;2023-12-28T08:04:54;4.63;;;2.40;;
75169;SDS011;63749;49.186;9.222;2023-12-28T08:07:19;5.00;;;2.70;;
75169;SDS011;63749;49.186;9.222;2023-12-28T08:09:45;5.33;;;2.37;;
75169;SDS011;63749;49.186;9.222;2023-12-28T08:12:10;4.93;;;2.20;;
75169;SDS011;63749;49.186;9.222;2023-12-28T08:14:35;3.87;;;2.10;;
75169;SDS011;63749;49.186;9.222;2023-12-28T08:17:01;4.97;;;2.10;;
75169;SDS011;63749;49.186;9.222;2023-12-28T08:19:26;3.33;;;2.20;;
75169;SDS011;63749;49.186;9.222;2023-12-28T08:21:52;5.07;;;2.30;;
75169;SDS011;63749;49.186;9.222;2023-12-28T08:24:17;5.30;;;2.47;;
75169;SDS011;63749;49.186;9.222;2023-12-28T08:26:42;7.63;;;2.50;;
75169;SDS011;63749;49.186;9.222;2023-12-28T08:29:08;7.97;;;2.80;;
75169;SDS011;63749;49.186;9.222;2023-12-28T08:31:33;3.87;;;2.30;;
75169;SDS011;63749;49.186;9.222;2023-12-28T08:33:58;4.43;;;2.40;;
75169;SDS011;63749;49.186;9.222;2023-12-28T08:36:24;4.27;;;2.50;;
75169;SDS011;63749;49.186;9.222;2023-12-28T08:38:49;4.95;;;2.50;;
75169;SDS011;63749;49.186;9.222;2023-12-28T08:41:21;5.10;;;2.20;;
75169;SDS011;63749;49.186;9.222;2023-12-28T08:43:49;5.32;;;2.53;;
75169;SDS011;63749;49.186;9.222;2023-12-28T08:46:15;4.30;;;2.40;;
75169;SDS011;63749;49.186;9.222;2023-12-28T08:48:41;4.13;;;2.35;;
75169;SDS011;63749;49.186;9.222;2023-12-28T08:51:06;4.75;;;2.40;;
75169;SDS011;63749;49.186;9.222;2023-12-28T08:53:32;5.10;;;2.10;;
75169;SDS011;63749;49.186;9.222;2023-12-28T08:55:57;4.40;;;2.23;;
75169;SDS011;63749;49.186;9.222;2023-12-28T08:58:22;7.77;;;3.00;;
75169;SDS011;63749;49.186;9.222;2023-12-28T09:00:48;6.75;;;2.97;;
75169;SDS011;63749;49.186;9.222;2023-12-28T09:03:13;8.53;;;3.20;;
75169;SDS011;63749;49.186;9.222;2023-12-28T09:05:39;7.18;;;3.17;;
75169;SDS011;63749;49.186;9.222;2023-12-28T09:08:04;6.80;;;2.70;;
75169;SDS011;63749;49.186;9.222;2023-12-28T09:10:30;5.33;;;2.67;;
75169;SDS011;63749;49.186;9.222;2023-12-28T09:12:56;6.00;;;2.65;;
75169;SDS011;63749;49.186;9.222;2023-12-28T09:15:21;5.30;;;2.63;;
75169;SDS011;63749;49.186;9.222;2023-12-28T09:17:46;7.37;;;2.90;;
75169;SDS011;63749;49.186;9.222;2023-12-28T09:20:12;6.17;;;2.67;;
75169;SDS011;63749;49.186;9.222;2023-12-28T09:22:37;10.53;;;4.00;;
75169;SDS011;63749;49.186;9.222;2023-12-28T09:25:03;9.07;;;3.67;;
75169;SDS011;63749;49.186;9.222;2023-12-28T09:27:28;9.00;;;3.63;;
75169;SDS011;63749;49.186;9.222;2023-12-28T09:29:54;5.07;;;2.53;;
75169;SDS011;63749;49.186;9.222;2023-12-28T09:32:19;5.50;;;2.67;;
75169;SDS011;63749;49.186;9.222;2023-12-28T09:34:45;5.67;;;2.60;;
75169;SDS011;63749;49.186;9.222;2023-12-28T09:37:10;8.63;;;2.57;;
75169;SDS011;63749;49.186;9.222;2023-12-28T09:39:35;5.80;;;2.80;;
75169;SDS011;63749;49.186;9.222;2023-12-28T09:42:09;5.43;;;2.70;;
75169;SDS011;63749;49.186;9.222;2023-12-28T09:44:46;8.80;;;2.75;;
75169;SDS011;63749;49.186;9.222;2023-12-28T09:47:11;4.38;;;2.47;;
75169;SDS011;63749;49.186;9.222;2023-12-28T09:49:38;5.27;;;2.40;;
75169;SDS011;63749;49.186;9.222;2023-12-28T09:52:05;6.97;;;3.10;;
75169;SDS011;63749;49.186;9.222;2023-12-28T09:54:31;9.25;;;2.58;;
75169;SDS011;63749;49.186;9.222;2023-12-28T09:56:57;9.07;;;3.30;;
75169;SDS011;63749;49.186;9.222;2023-12-28T09:59:22;7.65;;;2.85;;
75169;SDS011;63749;49.186;9.222;2023-12-28T10:01:48;10.32;;;3.70;;
75169;SDS011;63749;49.186;9.222;2023-12-28T10:04:14;6.50;;;2.70;;
75169;SDS011;63749;49.186;9.222;2023-12-28T10:06:41;6.28;;;2.45;;
75169;SDS011;63749;49.186;9.222;2023-12-28T10:09:06;8.53;;;2.60;;
75169;SDS011;63749;49.186;9.222;2023-12-28T10:11:33;8.77;;;2.85;;
75169;SDS011;63749;49.186;9.222;2023-12-28T10:13:58;7.77;;;2.73;;
75169;SDS011;63749;49.186;9.222;2023-12-28T10:16:25;6.25;;;2.72;;
75169;SDS011;63749;49.186;9.222;2023-12-28T10:18:51;7.22;;;2.80;;
75169;SDS011;63749;49.186;9.222;2023-12-28T10:21:16;7.50;;;2.40;;
75169;SDS011;63749;49.186;9.222;2023-12-28T10:23:41;5.23;;;2.20;;
75169;SDS011;63749;49.186;9.222;2023-12-28T10:26:07;5.72;;;2.20;;
75169;SDS011;63749;49.186;9.222;2023-12-28T10:28:34;5.03;;;2.17;;
75169;SDS011;63749;49.186;9.222;2023-12-28T10:30:59;4.15;;;2.28;;
75169;SDS011;63749;49.186;9.222;2023-12-28T10:33:26;3.50;;;2.10;;
75169;SDS011;63749;49.186;9.222;2023-12-28T10:35:51;4.17;;;2.20;;
75169;SDS011;63749;49.186;9.222;2023-12-28T10:38:18;4.35;;;2.33;;
75169;SDS011;63749;49.186;9.222;2023-12-28T10:40:44;4.40;;;2.20;;
75169;SDS011;63749;49.186;9.222;2023-12-28T10:43:11;4.28;;;2.30;;
75169;SDS011;63749;49.186;9.222;2023-12-28T10:45:40;4.53;;;2.27;;
75169;SDS011;63749;49.186;9.222;2023-12-28T10:48:11;4.57;;;2.40;;
75169;SDS011;63749;49.186;9.222;2023-12-28T10:50:47;4.68;;;2.47;;
75169;SDS011;63749;49.186;9.222;2023-12-28T11:01:20;3.42;;;2.25;;
75169;SDS011;63749;49.186;9.222;2023-12-28T11:03:57;4.68;;;2.30;;
75169;SDS011;63749;49.186;9.222;2023-12-28T11:06:27;4.20;;;2.30;;
75169;SDS011;63749;49.186;9.222;2023-12-28T11:08:54;3.63;;;2.20;;
75169;SDS011;63749;49.186;9.222;2023-12-28T11:11:21;3.63;;;2.30;;
75169;SDS011;63749;49.186;9.222;2023-12-28T11:13:47;5.40;;;2.38;;
75169;SDS011;63749;49.186;9.222;2023-12-28T11:16:15;5.85;;;2.70;;
75169;SDS011;63749;49.186;9.222;2023-12-28T11:18:41;4.65;;;2.72;;
75169;SDS011;63749;49.186;9.222;2023-12-28T11:21:08;7.00;;;2.50;;
75169;SDS011;63749;49.186;9.222;2023-12-28T11:23:33;5.38;;;2.85;;
75169;SDS011;63749;49.186;9.222;2023-12-28T11:25:59;4.53;;;2.80;;
75169;SDS011;63749;49.186;9.222;2023-12-28T11:28:25;6.00;;;2.42;;
75169;SDS011;63749;49.186;9.222;2023-12-28T11:30:51;5.53;;;2.87;;
75169;SDS011;63749;49.186;9.222;2023-12-28T11:33:17;4.50;;;2.60;;
75169;SDS011;63749;49.186;9.222;2023-12-28T11:35:42;7.43;;;2.90;;
75169;SDS011;63749;49.186;9.222;2023-12-28T11:38:08;6.43;;;2.70;;
75169;SDS011;63749;49.186;9.222;2023-12-28T11:40:42;5.00;;;2.85;;
75169;SDS011;63749;49.186;9.222;2023-12-28T11:43:19;5.00;;;2.60;;
75169;SDS011;63749;49.186;9.222;2023-12-28T11:45:47;5.57;;;3.00;;
75169;SDS011;63749;49.186;9.222;2023-12-28T11:48:22;5.07;;;2.88;;
75169;SDS011;63749;49.186;9.222;2023-12-28T11:50:50;6.27;;;2.73;;
75169;SDS011;63749;49.186;9.222;2023-12-28T11:53:19;4.60;;;2.65;;
75169;SDS011;63749;49.186;9.222;2023-12-28T11:55:45;3.33;;;2.35;;
75169;SDS011;63749;49.186;9.222;2023-12-28T11:58:10;4.90;;;2.53;;
75169;SDS011;63749;49.186;9.222;2023-12-28T12:00:37;4.87;;;2.50;;
75169;SDS011;63749;49.186;9.222;2023-12-28T12:03:09;5.25;;;2.53;;
75169;SDS011;63749;49.186;9.222;2023-12-28T12:05:35;4.53;;;2.38;;
75169;SDS011;63749;49.186;9.222;2023-12-28T12:08:01;4.13;;;2.43;;
75169;SDS011;63749;49.186;9.222;2023-12-28T12:10:26;5.13;;;2.53;;
75169;SDS011;63749;49.186;9.222;2023-12-28T12:12:52;4.77;;;2.20;;
75169;SDS011;63749;49.186;9.222;2023-12-28T12:15:19;4.53;;;2.33;;
75169;SDS011;63749;49.186;9.222;2023-12-28T12:17:44;4.00;;;2.50;;
75169;SDS011;63749;49.186;9.222;2023-12-28T12:20:10;5.00;;;2.20;;
75169;SDS011;63749;49.186;9.222;2023-12-28T12:22:36;3.85;;;2.60;;
75169;SDS011;63749;49.186;9.222;2023-12-28T12:25:03;6.28;;;2.58;;
75169;SDS011;63749;49.186;9.222;2023-12-28T12:27:30;3.53;;;2.17;;
75169;SDS011;63749;49.186;9.222;2023-12-28T12:29:55;5.57;;;2.40;;
75169;SDS011;63749;49.186;9.222;2023-12-28T12:32:23;5.00;;;2.63;;
75169;SDS011;63749;49.186;9.222;2023-12-28T12:34:50;4.72;;;2.40;;
75169;SDS011;63749;49.186;9.222;2023-12-28T12:37:16;3.83;;;2.10;;
75169;SDS011;63749;49.186;9.222;2023-12-28T12:39:43;5.28;;;2.03;;
75169;SDS011;63749;49.186;9.222;2023-12-28T12:42:15;4.07;;;2.10;;
75169;SDS011;63749;49.186;9.222;2023-12-28T12:44:44;4.73;;;2.37;;
75169;SDS011;63749;49.186;9.222;2023-12-28T12:47:12;3.85;;;2.47;;
75169;SDS011;63749;49.186;9.222;2023-12-28T12:49:38;5.10;;;2.93;;
75169;SDS011;63749;49.186;9.222;2023-12-28T12:52:04;5.05;;;3.05;;
75169;SDS011;63749;49.186;9.222;2023-12-28T12:54:34;5.18;;;2.70;;
75169;SDS011;63749;49.186;9.222;2023-12-28T12:56:59;5.28;;;2.72;;
75169;SDS011;63749;49.186;9.222;2023-12-28T12:59:25;5.47;;;2.70;;
75169;SDS011;63749;49.186;9.222;2023-12-28T13:01:51;5.93;;;2.97;;
75169;SDS011;63749;49.186;9.222;2023-12-28T13:04:18;5.10;;;2.40;;
75169;SDS011;63749;49.186;9.222;2023-12-28T13:06:43;4.53;;;2.33;;
75169;SDS011;63749;49.186;9.222;2023-12-28T13:09:09;4.40;;;2.60;;
75169;SDS011;63749;49.186;9.222;2023-12-28T13:11:37;4.97;;;2.58;;
75169;SDS011;63749;49.186;9.222;2023-12-28T13:14:03;4.03;;;2.10;;
75169;SDS011;63749;49.186;9.222;2023-12-28T13:16:29;4.47;;;2.03;;
75169;SDS011;63749;49.186;9.222;2023-12-28T13:18:55;4.77;;;2.27;;
75169;SDS011;63749;49.186;9.222;2023-12-28T13:21:20;3.73;;;2.00;;
75169;SDS011;63749;49.186;9.222;2023-12-28T13:23:46;6.07;;;2.10;;
75169;SDS011;63749;49.186;9.222;2023-12-28T13:26:11;3.00;;;2.10;;
75169;SDS011;63749;49.186;9.222;2023-12-28T13:28:37;3.30;;;1.80;;
75169;SDS011;63749;49.186;9.222;2023-12-28T13:31:03;5.10;;;1.77;;
75169;SDS011;63749;49.186;9.222;2023-12-28T13:33:29;3.63;;;1.90;;
75169;SDS011;63749;49.186;9.222;2023-12-28T13:35:55;2.83;;;1.83;;
75169;SDS011;63749;49.186;9.222;2023-12-28T13:38:20;4.53;;;1.90;;
75169;SDS011;63749;49.186;9.222;2023-12-28T13:40:46;4.05;;;1.95;;
75169;SDS011;63749;49.186;9.222;2023-12-28T13:43:12;4.40;;;2.10;;
75169;SDS011;63749;49.186;9.222;2023-12-28T13:45:37;3.83;;;2.03;;
75169;SDS011;63749;49.186;9.222;2023-12-28T13:48:04;3.85;;;1.95;;
75169;SDS011;63749;49.186;9.222;2023-12-28T13:50:30;2.70;;;1.70;;
75169;SDS011;63749;49.186;9.222;2023-12-28T13:53:02;6.90;;;1.70;;
75169;SDS011;63749;49.186;9.222;2023-12-28T13:55:27;4.80;;;2.03;;
75169;SDS011;63749;49.186;9.222;2023-12-28T13:57:56;4.40;;;1.70;;
75169;SDS011;63749;49.186;9.222;2023-12-28T14:00:21;3.40;;;1.90;;
75169;SDS011;63749;49.186;9.222;2023-12-28T14:02:50;4.10;;;1.90;;
75169;SDS011;63749;49.186;9.222;2023-12-28T14:05:17;4.25;;;2.05;;
75169;SDS011;63749;49.186;9.222;2023-12-28T14:07:43;4.57;;;1.98;;
75169;SDS011;63749;49.186;9.222;2023-12-28T14:10:08;3.50;;;2.10;;
75169;SDS011;63749;49.186;9.222;2023-12-28T14:12:33;4.30;;;2.10;;
75169;SDS011;63749;49.186;9.222;2023-12-28T14:15:00;3.38;;;2.22;;
75169;SDS011;63749;49.186;9.222;2023-12-28T14:17:27;4.20;;;2.20;;
75169;SDS011;63749;49.186;9.222;2023-12-28T14:19:53;2.97;;;1.80;;
75169;SDS011;63749;49.186;9.222;2023-12-28T14:22:19;4.20;;;2.35;;
75169;SDS011;63749;49.186;9.222;2023-12-28T14:24:46;3.57;;;2.10;;
75169;SDS011;63749;49.186;9.222;2023-12-28T14:27:17;3.85;;;2.00;;
75169;SDS011;63749;49.186;9.222;2023-12-28T14:29:44;3.28;;;1.98;;
75169;SDS011;63749;49.186;9.222;2023-12-28T14:32:11;4.00;;;1.98;;
75169;SDS011;63749;49.186;9.222;2023-12-28T14:34:37;2.70;;;1.90;;
75169;SDS011;63749;49.186;9.222;2023-12-28T14:37:07;3.60;;;1.83;;
75169;SDS011;63749;49.186;9.222;2023-12-28T14:39:32;4.72;;;2.00;;
75169;SDS011;63749;49.186;9.222;2023-12-28T14:41:58;3.97;;;2.00;;